Time;durP1;ratioP1;P1;durP2;ratioP2;P2;SDS_P1;SDS_P2;PMS_P1;PMS_P2;Temp;Humidity;BMP_temperature;BMP_pressure;BME280_temperature;BME280_humidity;BME280_pressure;Samples;Min_cycle;Max_cycle;Signal;HPM_P1;HPM_P2
2021/07/11 00:02:25;;;;;;;3.65;2.00;;;18.70;99.90;;;;;;4968303;28;20045;-84
2021/07/11 00:04:52;;;;;;;1.83;1.73;;;18.80;99.90;;;;;;4967430;28;20484;-83
2021/07/11 00:07:19;;;;;;;1.90;1.60;;;18.80;99.90;;;;;;4982970;28;20491;-84
2021/07/11 00:09:46;;;;;;;1.63;1.52;;;18.80;99.90;;;;;;4964857;28;20058;-84
2021/07/11 00:12:13;;;;;;;1.83;1.40;;;18.70;99.90;;;;;;4966033;28;20505;-84
2021/07/11 00:14:40;;;;;;;2.75;2.55;;;18.70;99.90;;;;;;4968226;28;20366;-84
2021/07/11 00:17:07;;;;;;;1.65;1.52;;;18.70;99.90;;;;;;4967448;28;20512;-84
2021/07/11 00:19:34;;;;;;;1.90;1.80;;;18.70;99.90;;;;;;4982425;28;20460;-84
2021/07/11 00:22:01;;;;;;;3.70;1.80;;;18.70;99.90;;;;;;4963882;28;20192;-83
2021/07/11 00:24:28;;;;;;;2.22;2.03;;;18.70;99.90;;;;;;4968086;28;20583;-83
2021/07/11 00:26:55;;;;;;;1.38;1.27;;;18.60;99.90;;;;;;4981107;28;20031;-84
2021/07/11 00:29:22;;;;;;;1.63;1.52;;;18.60;99.90;;;;;;4964342;28;20043;-84
2021/07/11 00:31:49;;;;;;;1.88;1.40;;;18.60;99.90;;;;;;4963440;28;20074;-84
2021/07/11 00:34:16;;;;;;;2.30;1.67;;;18.50;99.90;;;;;;4965945;28;20046;-84
2021/07/11 00:36:44;;;;;;;3.83;1.85;;;18.50;99.90;;;;;;4968251;28;20500;-83
2021/07/11 00:39:11;;;;;;;2.22;1.60;;;18.50;99.90;;;;;;4965539;28;20093;-84
2021/07/11 00:41:42;;;;;;;3.10;1.38;;;18.50;99.90;;;;;;4980003;28;20051;-84
2021/07/11 00:44:09;;;;;;;1.90;1.77;;;18.40;99.90;;;;;;4964231;28;20050;-83
2021/07/11 00:46:44;;;;;;;7.82;1.88;;;18.40;99.90;;;;;;4962674;28;20093;-83
2021/07/11 00:49:14;;;;;;;1.48;1.30;;;18.40;99.90;;;;;;4968557;28;20134;-83
2021/07/11 00:51:43;;;;;;;2.55;1.42;;;18.30;99.90;;;;;;4962875;28;20440;-84
2021/07/11 00:54:14;;;;;;;2.00;1.45;;;18.30;99.90;;;;;;4979174;28;20061;-84
2021/07/11 00:56:44;;;;;;;3.13;1.35;;;18.30;99.90;;;;;;4979268;28;20058;-84
2021/07/11 00:59:13;;;;;;;1.30;1.20;;;18.20;99.90;;;;;;4964432;28;20147;-83
2021/07/11 01:01:46;;;;;;;2.13;1.13;;;18.20;99.90;;;;;;4962627;28;20150;-84
2021/07/11 01:04:21;;;;;;;0.90;0.90;;;18.20;99.90;;;;;;4966161;28;20054;-84
2021/07/11 01:06:53;;;;;;;3.63;1.27;;;18.10;99.90;;;;;;4948235;28;20109;-84
2021/07/11 01:09:28;;;;;;;2.25;1.05;;;18.10;99.90;;;;;;4963182;28;20137;-85
2021/07/11 01:12:00;;;;;;;2.45;1.58;;;18.10;99.90;;;;;;4979188;28;20043;-84
2021/07/11 01:14:35;;;;;;;1.42;1.33;;;18.10;99.90;;;;;;4978972;28;20053;-84
2021/07/11 01:17:06;;;;;;;2.60;1.30;;;18.00;99.90;;;;;;4948318;28;20070;-84
2021/07/11 01:20:02;;;;;;;1.80;1.33;;;18.00;99.90;;;;;;4965443;28;20045;-84
2021/07/11 01:22:45;;;;;;;6.75;1.30;;;18.00;99.90;;;;;;4981678;28;20385;-84
2021/07/11 01:25:33;;;;;;;4.57;2.05;;;18.00;99.90;;;;;;4949203;28;20093;-84
2021/07/11 01:28:07;;;;;;;1.55;1.40;;;18.00;99.90;;;;;;4960717;28;20046;-84
2021/07/11 01:30:36;;;;;;;2.05;1.52;;;18.00;99.90;;;;;;4965148;28;20050;-84
2021/07/11 01:33:06;;;;;;;2.72;1.42;;;17.90;99.90;;;;;;4963939;28;20349;-84
2021/07/11 01:35:37;;;;;;;1.17;1.00;;;17.90;99.90;;;;;;4986212;28;20043;-84
2021/07/11 01:38:07;;;;;;;1.52;1.02;;;18.00;99.90;;;;;;4944745;28;20046;-83
2021/07/11 01:40:34;;;;;;;1.88;1.60;;;17.90;99.90;;;;;;4947948;28;20051;-84
2021/07/11 01:43:05;;;;;;;1.13;1.08;;;17.90;99.90;;;;;;4964377;28;20508;-84
2021/07/11 01:45:35;;;;;;;2.00;1.90;;;17.90;99.90;;;;;;4962828;28;20095;-84
2021/07/11 01:48:03;;;;;;;1.55;1.45;;;17.90;99.90;;;;;;4959240;28;20063;-84
2021/07/11 01:50:32;;;;;;;3.22;1.55;;;17.90;99.90;;;;;;4980686;28;20035;-85
2021/07/11 01:52:59;;;;;;;5.25;1.58;;;17.90;99.90;;;;;;4964728;28;20057;-84
2021/07/11 01:55:28;;;;;;;3.80;2.00;;;17.90;99.90;;;;;;4981677;28;20097;-84
2021/07/11 01:57:56;;;;;;;1.57;1.30;;;17.90;99.90;;;;;;4978259;28;20043;-84
2021/07/11 02:00:23;;;;;;;3.42;1.52;;;17.80;99.90;;;;;;4964721;28;20748;-84
2021/07/11 02:02:51;;;;;;;2.95;1.33;;;17.80;99.90;;;;;;4964416;28;20046;-84
2021/07/11 02:05:26;;;;;;;3.90;1.65;;;17.80;99.90;;;;;;4966945;28;20054;-85
2021/07/11 02:07:57;;;;;;;2.25;2.05;;;17.80;99.90;;;;;;4965484;28;20061;-84
2021/07/11 02:10:29;;;;;;;4.60;1.67;;;17.80;99.90;;;;;;4964761;28;20050;-84
2021/07/11 02:13:16;;;;;;;2.47;1.88;;;17.70;99.90;;;;;;4953203;28;20046;-84
2021/07/11 02:15:47;;;;;;;2.78;1.85;;;17.70;99.90;;;;;;4967509;28;20065;-84
2021/07/11 02:18:19;;;;;;;2.92;1.25;;;17.70;99.90;;;;;;4961514;28;20114;-84
2021/07/11 02:20:53;;;;;;;1.92;1.83;;;17.70;99.90;;;;;;4966300;28;20062;-84
2021/07/11 02:23:29;;;;;;;2.65;1.92;;;17.60;99.90;;;;;;4966404;28;20520;-84
2021/07/11 02:25:59;;;;;;;1.90;1.80;;;17.70;99.90;;;;;;4964882;28;20373;-85
2021/07/11 02:28:32;;;;;;;2.70;2.03;;;17.60;99.90;;;;;;4951142;28;20101;-85
2021/07/11 02:31:02;;;;;;;1.88;1.77;;;17.60;99.90;;;;;;4969748;28;20035;-85
2021/07/11 02:33:36;;;;;;;2.28;1.95;;;17.60;99.90;;;;;;4967754;28;20795;-84
2021/07/11 02:36:20;;;;;;;2.22;2.03;;;17.60;99.90;;;;;;4965208;28;20050;-85
2021/07/11 02:38:54;;;;;;;4.97;1.80;;;17.60;99.90;;;;;;4979878;28;20070;-84
2021/07/11 02:41:25;;;;;;;4.25;2.17;;;17.60;99.90;;;;;;4951594;28;20125;-85
2021/07/11 02:43:57;;;;;;;4.68;2.63;;;17.60;99.90;;;;;;4961311;28;20089;-85
2021/07/11 02:46:33;;;;;;;6.38;2.42;;;17.60;99.90;;;;;;4969693;28;20057;-84
2021/07/11 02:49:02;;;;;;;2.33;1.95;;;17.60;99.90;;;;;;4980089;28;20054;-84
2021/07/11 02:51:48;;;;;;;3.42;1.90;;;17.60;99.90;;;;;;4977288;28;20528;-84
2021/07/11 02:54:22;;;;;;;4.22;3.40;;;17.60;99.90;;;;;;4964483;28;20129;-84
2021/07/11 02:56:55;;;;;;;2.22;2.00;;;17.60;99.90;;;;;;4967607;28;20043;-84
2021/07/11 02:59:22;;;;;;;2.22;2.00;;;17.60;99.90;;;;;;4968333;28;20062;-85
2021/07/11 03:01:51;;;;;;;2.22;2.03;;;17.50;99.90;;;;;;4967564;28;20062;-85
2021/07/11 03:04:24;;;;;;;2.35;2.13;;;17.60;99.90;;;;;;4959124;28;20105;-84
2021/07/11 03:06:52;;;;;;;3.05;1.90;;;17.60;99.90;;;;;;4969412;28;20050;-85
2021/07/11 03:09:19;;;;;;;4.50;2.42;;;17.60;99.90;;;;;;4971519;28;20053;-85
2021/07/11 03:11:47;;;;;;;3.50;1.85;;;17.60;99.90;;;;;;4951376;28;20097;-84
2021/07/11 03:14:15;;;;;;;3.35;2.30;;;17.60;99.90;;;;;;4984081;28;20090;-85
2021/07/11 03:16:55;;;;;;;2.83;2.63;;;17.60;99.90;;;;;;4952758;28;20107;-84
2021/07/11 03:19:27;;;;;;;4.38;2.97;;;17.60;99.90;;;;;;4974355;28;20053;-84
2021/07/11 03:21:58;;;;;;;5.68;3.17;;;17.60;99.90;;;;;;4949458;28;20142;-85
2021/07/11 03:24:29;;;;;;;2.38;2.13;;;17.60;99.90;;;;;;4984036;28;20400;-84
2021/07/11 03:26:59;;;;;;;6.15;2.63;;;17.60;99.90;;;;;;4972664;28;20700;-84
2021/07/11 03:29:38;;;;;;;4.35;2.70;;;17.60;99.90;;;;;;4989497;28;20046;-85
2021/07/11 03:32:09;;;;;;;2.70;2.17;;;17.70;99.90;;;;;;4981547;28;20457;-85
2021/07/11 03:34:37;;;;;;;4.63;3.58;;;17.70;99.90;;;;;;4986261;28;20051;-85
2021/07/11 03:37:16;;;;;;;3.05;2.75;;;17.70;99.90;;;;;;4971195;28;20052;-85
2021/07/11 03:39:48;;;;;;;3.40;3.10;;;17.70;99.90;;;;;;4971444;28;20051;-85
2021/07/11 03:42:21;;;;;;;3.03;2.80;;;17.70;99.90;;;;;;4968035;28;20042;-85
2021/07/11 03:44:55;;;;;;;3.33;2.60;;;17.70;99.90;;;;;;4970203;28;20158;-85
2021/07/11 03:47:25;;;;;;;4.35;3.55;;;17.80;99.90;;;;;;4969951;28;20130;-84
2021/07/11 03:49:54;;;;;;;4.00;3.03;;;17.80;99.90;;;;;;4949977;28;20054;-84
2021/07/11 03:52:25;;;;;;;4.80;4.50;;;17.80;99.90;;;;;;4967571;28;20043;-84
2021/07/11 03:54:55;;;;;;;3.22;2.95;;;17.90;99.90;;;;;;4953039;28;20051;-84
2021/07/11 03:57:28;;;;;;;5.65;4.28;;;17.90;99.90;;;;;;4962356;28;20617;-84
2021/07/11 03:59:56;;;;;;;3.55;3.03;;;17.90;99.90;;;;;;4953639;28;20070;-84
2021/07/11 04:02:27;;;;;;;8.00;3.85;;;17.90;99.90;;;;;;4949989;28;20138;-84
2021/07/11 04:04:57;;;;;;;5.40;3.85;;;17.90;99.90;;;;;;4952041;28;20468;-84
2021/07/11 04:07:26;;;;;;;3.88;3.47;;;17.90;99.90;;;;;;4951760;28;20047;-84
2021/07/11 04:09:55;;;;;;;3.58;2.97;;;18.00;99.90;;;;;;4970328;28;20441;-84
2021/07/11 04:12:22;;;;;;;5.13;3.78;;;18.00;99.90;;;;;;4986099;28;20047;-84
2021/07/11 04:14:49;;;;;;;3.60;3.30;;;18.00;99.90;;;;;;4969409;28;20038;-85
2021/07/11 04:17:20;;;;;;;4.47;3.63;;;18.00;99.90;;;;;;4971094;28;20049;-84
2021/07/11 04:19:48;;;;;;;3.63;3.33;;;18.00;99.90;;;;;;4953444;28;20046;-85
2021/07/11 04:22:16;;;;;;;4.07;3.78;;;18.00;99.90;;;;;;4986517;28;20057;-84
2021/07/11 04:24:45;;;;;;;4.32;4.03;;;18.00;99.90;;;;;;4971981;28;20122;-84
2021/07/11 04:27:12;;;;;;;4.73;4.13;;;18.00;99.90;;;;;;4955806;28;20574;-83
2021/07/11 04:29:40;;;;;;;4.88;4.28;;;18.10;99.90;;;;;;4973399;28;20047;-84
2021/07/11 04:32:09;;;;;;;4.10;3.75;;;18.10;99.90;;;;;;4970074;28;20046;-84
2021/07/11 04:34:39;;;;;;;4.65;3.63;;;18.10;99.90;;;;;;4970289;28;20047;-84
2021/07/11 04:37:07;;;;;;;3.67;3.33;;;18.10;99.90;;;;;;4968781;28;20677;-84
2021/07/11 04:39:35;;;;;;;7.10;3.83;;;18.10;99.90;;;;;;4984206;28;20050;-85
2021/07/11 04:42:02;;;;;;;5.30;4.80;;;18.20;99.90;;;;;;4971215;28;20527;-84
2021/07/11 04:44:29;;;;;;;4.32;3.92;;;18.20;99.90;;;;;;4976844;28;20138;-84
2021/07/11 04:46:56;;;;;;;5.47;4.03;;;18.20;99.90;;;;;;4980959;28;20491;-84
2021/07/11 04:49:25;;;;;;;4.25;3.72;;;18.30;99.90;;;;;;4985878;28;20074;-84
2021/07/11 04:51:53;;;;;;;6.05;4.03;;;18.30;99.90;;;;;;4996854;28;20042;-84
2021/07/11 04:54:21;;;;;;;5.53;5.03;;;18.40;99.90;;;;;;4978825;28;20093;-84
2021/07/11 04:56:48;;;;;;;6.15;3.42;;;18.40;99.90;;;;;;4970930;28;20071;-84
2021/07/11 04:59:15;;;;;;;4.07;3.67;;;18.40;99.90;;;;;;4955973;28;20062;-84
2021/07/11 05:01:42;;;;;;;6.13;3.85;;;18.40;99.90;;;;;;4972478;28;20071;-83
2021/07/11 05:04:09;;;;;;;7.47;3.53;;;18.50;99.90;;;;;;4992342;28;22234;-84
2021/07/11 05:06:36;;;;;;;5.15;4.13;;;18.60;99.90;;;;;;4974550;28;20058;-84
2021/07/11 05:09:04;;;;;;;5.18;4.50;;;18.60;99.90;;;;;;4976506;28;20066;-85
2021/07/11 05:11:32;;;;;;;6.13;4.22;;;18.60;99.90;;;;;;4973296;28;20078;-85
2021/07/11 05:13:59;;;;;;;5.28;4.88;;;18.60;99.90;;;;;;4986582;28;20054;-84
2021/07/11 05:16:26;;;;;;;4.93;4.15;;;18.60;99.90;;;;;;4971250;28;20489;-85
2021/07/11 05:18:55;;;;;;;5.75;5.25;;;18.60;99.90;;;;;;4976844;28;20042;-84
2021/07/11 05:21:22;;;;;;;5.20;4.70;;;18.60;99.90;;;;;;4985106;28;20050;-84
2021/07/11 05:23:49;;;;;;;9.57;5.82;;;18.60;99.90;;;;;;4983199;28;20047;-84
2021/07/11 05:26:16;;;;;;;5.82;4.32;;;18.70;99.90;;;;;;4967011;28;20043;-85
2021/07/11 05:28:44;;;;;;;4.63;4.22;;;18.60;99.90;;;;;;4977024;28;20039;-84
2021/07/11 05:31:12;;;;;;;9.43;4.60;;;18.70;99.90;;;;;;4971598;28;20106;-85
2021/07/11 05:33:39;;;;;;;4.38;3.72;;;18.60;99.90;;;;;;4975796;28;20421;-85
2021/07/11 05:36:08;;;;;;;6.60;4.28;;;18.70;99.90;;;;;;4991731;28;20043;-84
2021/07/11 05:38:37;;;;;;;7.65;4.85;;;18.70;99.90;;;;;;4987186;28;20081;-84
2021/07/11 05:41:04;;;;;;;5.15;4.65;;;18.70;99.90;;;;;;4996121;28;20066;-84
2021/07/11 05:43:32;;;;;;;4.25;3.95;;;18.80;99.90;;;;;;4989947;28;20058;-84
2021/07/11 05:45:59;;;;;;;7.32;4.95;;;18.80;99.90;;;;;;4984054;28;20948;-84
2021/07/11 05:48:26;;;;;;;6.80;5.10;;;18.80;99.90;;;;;;4988573;28;20563;-84
2021/07/11 05:50:53;;;;;;;7.30;5.28;;;18.70;99.90;;;;;;4980652;28;20046;-84
2021/07/11 05:53:20;;;;;;;5.00;4.20;;;18.70;99.90;;;;;;4978726;28;20046;-84
2021/07/11 05:55:47;;;;;;;8.30;6.00;;;18.70;99.90;;;;;;4976591;28;20082;-85
2021/07/11 05:58:14;;;;;;;5.32;4.53;;;18.80;99.90;;;;;;4981372;28;20055;-84
2021/07/11 06:00:42;;;;;;;5.05;4.18;;;18.80;99.90;;;;;;4980492;28;20069;-84
2021/07/11 06:03:10;;;;;;;5.05;4.55;;;18.70;99.90;;;;;;4960306;28;20078;-84
2021/07/11 06:05:37;;;;;;;7.05;4.97;;;18.70;99.90;;;;;;4977007;28;20034;-84
2021/07/11 06:08:07;;;;;;;8.02;4.72;;;18.70;99.90;;;;;;4972761;28;20049;-84
2021/07/11 06:10:34;;;;;;;6.32;4.80;;;18.80;99.90;;;;;;4990712;28;20050;-84
2021/07/11 06:13:01;;;;;;;7.38;4.85;;;18.90;99.90;;;;;;4958954;28;20411;-84
2021/07/11 06:15:29;;;;;;;5.40;4.40;;;18.90;99.90;;;;;;4959741;28;20047;-85
2021/07/11 06:17:56;;;;;;;6.32;4.70;;;18.90;99.90;;;;;;4975288;28;20035;-85
2021/07/11 06:20:23;;;;;;;5.43;4.45;;;19.00;99.90;;;;;;4975973;28;20087;-85
2021/07/11 06:22:51;;;;;;;5.43;5.03;;;19.00;99.90;;;;;;4973956;28;20108;-85
2021/07/11 06:25:18;;;;;;;5.30;4.70;;;19.00;99.90;;;;;;4989421;28;20047;-85
2021/07/11 06:27:45;;;;;;;6.72;5.90;;;19.10;99.90;;;;;;4959907;28;20125;-86
2021/07/11 06:30:15;;;;;;;11.20;5.63;;;19.10;99.90;;;;;;4957995;28;20043;-85
2021/07/11 06:32:43;;;;;;;8.77;5.07;;;19.20;99.90;;;;;;4975202;28;20050;-85
2021/07/11 06:35:13;;;;;;;4.82;4.35;;;19.20;99.90;;;;;;4970233;28;20058;-85
2021/07/11 06:37:41;;;;;;;4.95;4.55;;;19.20;99.90;;;;;;4958977;28;20043;-84
2021/07/11 06:40:10;;;;;;;4.85;4.45;;;19.30;99.90;;;;;;4972102;28;20038;-84
2021/07/11 06:42:38;;;;;;;7.05;5.07;;;19.30;99.90;;;;;;4973528;28;20053;-85
2021/07/11 06:45:07;;;;;;;5.07;4.63;;;19.30;99.90;;;;;;4988351;28;20054;-84
2021/07/11 06:47:34;;;;;;;5.47;4.43;;;19.30;99.90;;;;;;4962770;28;20104;-84
2021/07/11 06:50:01;;;;;;;5.82;5.38;;;19.30;99.90;;;;;;4955458;28;20050;-85
2021/07/11 06:52:28;;;;;;;5.30;4.78;;;19.30;99.90;;;;;;4986861;28;20484;-85
2021/07/11 06:54:55;;;;;;;5.03;4.60;;;19.50;99.90;;;;;;4973061;28;20058;-84
2021/07/11 06:57:23;;;;;;;4.60;4.20;;;19.50;99.90;;;;;;4983472;28;20053;-85
2021/07/11 06:59:49;;;;;;;4.55;4.15;;;19.60;99.90;;;;;;4970835;28;20046;-84
2021/07/11 07:02:16;;;;;;;8.60;4.63;;;19.60;99.90;;;;;;4973490;28;20059;-85
2021/07/11 07:04:44;;;;;;;5.95;5.35;;;19.60;99.90;;;;;;4978267;28;20058;-86
2021/07/11 07:07:10;;;;;;;5.50;5.07;;;19.70;99.90;;;;;;4993161;28;20054;-85
2021/07/11 07:09:37;;;;;;;6.47;4.55;;;19.70;99.90;;;;;;4976708;28;20038;-86
2021/07/11 07:12:07;;;;;;;5.22;4.63;;;19.70;99.90;;;;;;4971398;28;20076;-84
2021/07/11 07:14:34;;;;;;;7.00;6.00;;;19.70;99.90;;;;;;4990934;28;20046;-84
2021/07/11 07:17:01;;;;;;;6.25;4.72;;;19.80;99.90;;;;;;4979032;28;20062;-85
2021/07/11 07:19:28;;;;;;;6.28;5.30;;;19.80;99.90;;;;;;4991325;28;20050;-85
2021/07/11 07:21:55;;;;;;;5.20;4.75;;;19.80;99.90;;;;;;4971468;28;20054;-84
2021/07/11 07:24:22;;;;;;;5.43;4.93;;;19.70;99.90;;;;;;4983907;28;20362;-85
2021/07/11 07:26:49;;;;;;;6.28;5.70;;;19.80;99.90;;;;;;4970616;28;20049;-85
2021/07/11 07:29:16;;;;;;;5.85;4.80;;;19.80;99.90;;;;;;4985060;28;20254;-85
2021/07/11 07:31:44;;;;;;;7.95;7.32;;;19.90;99.90;;;;;;4953133;28;20055;-85
2021/07/11 07:34:11;;;;;;;5.28;4.75;;;19.90;99.90;;;;;;4968376;28;20053;-85
2021/07/11 07:36:38;;;;;;;5.13;4.38;;;20.00;99.90;;;;;;4967289;28;20129;-84
2021/07/11 07:39:05;;;;;;;4.88;4.18;;;20.10;99.90;;;;;;4967157;28;20138;-85
2021/07/11 07:41:32;;;;;;;5.90;5.25;;;20.20;99.90;;;;;;4982354;28;20054;-85
2021/07/11 07:43:59;;;;;;;5.35;4.85;;;20.20;99.90;;;;;;4967961;28;20059;-85
2021/07/11 07:46:26;;;;;;;5.55;5.05;;;20.20;99.90;;;;;;4965524;28;20070;-85
2021/07/11 07:48:53;;;;;;;6.03;4.88;;;20.30;99.90;;;;;;4967604;28;20078;-85
2021/07/11 07:51:20;;;;;;;11.18;6.95;;;20.30;99.90;;;;;;4969665;28;20042;-85
2021/07/11 07:53:48;;;;;;;5.38;4.88;;;20.30;99.90;;;;;;4958311;28;20051;-85
2021/07/11 07:56:15;;;;;;;7.53;4.63;;;20.20;99.90;;;;;;4966985;28;21693;-85
2021/07/11 07:58:42;;;;;;;11.38;5.25;;;20.10;99.90;;;;;;4971125;28;20070;-86
2021/07/11 08:01:09;;;;;;;5.65;5.15;;;20.10;99.90;;;;;;4972688;28;20043;-84
2021/07/11 08:03:36;;;;;;;6.93;5.68;;;20.20;99.90;;;;;;4968371;28;20567;-85
2021/07/11 08:06:03;;;;;;;6.50;4.63;;;20.20;99.90;;;;;;4984396;28;20377;-85
2021/07/11 08:08:30;;;;;;;6.68;4.72;;;20.30;99.90;;;;;;4970275;28;20064;-85
2021/07/11 08:10:57;;;;;;;5.90;4.53;;;20.40;99.90;;;;;;4971705;28;20043;-86
2021/07/11 08:13:24;;;;;;;5.20;4.70;;;20.40;99.90;;;;;;4967317;28;20065;-85
2021/07/11 08:15:51;;;;;;;10.65;6.90;;;20.40;99.90;;;;;;4951476;28;20117;-85
2021/07/11 08:18:18;;;;;;;5.18;4.72;;;20.60;99.90;;;;;;4972319;28;20102;-85
2021/07/11 08:20:45;;;;;;;6.75;5.22;;;20.70;99.90;;;;;;4965645;28;20704;-85
2021/07/11 08:23:12;;;;;;;6.95;4.35;;;20.80;99.90;;;;;;4967241;28;20877;-85
2021/07/11 08:25:39;;;;;;;8.00;4.00;;;20.80;99.90;;;;;;4953603;28;20625;-85
2021/07/11 08:28:06;;;;;;;4.72;4.30;;;20.80;99.90;;;;;;4969128;28;20061;-85
2021/07/11 08:30:33;;;;;;;5.25;3.92;;;20.90;99.90;;;;;;4970899;28;20121;-85
2021/07/11 08:33:00;;;;;;;4.35;3.97;;;20.90;99.90;;;;;;4934456;28;20061;-85
2021/07/11 08:35:28;;;;;;;3.97;3.63;;;20.90;99.90;;;;;;4985944;28;20046;-85
2021/07/11 08:37:55;;;;;;;6.43;3.97;;;20.90;99.90;;;;;;4952687;28;20373;-85
2021/07/11 08:40:22;;;;;;;4.07;3.38;;;20.90;99.90;;;;;;4970127;28;20071;-85
2021/07/11 08:42:50;;;;;;;4.28;3.78;;;20.90;99.90;;;;;;4970081;28;20046;-86
2021/07/11 08:45:18;;;;;;;6.90;4.50;;;21.00;99.90;;;;;;4969463;28;20093;-86
2021/07/11 08:47:45;;;;;;;4.95;3.67;;;21.00;99.90;;;;;;4984549;28;20477;-85
2021/07/11 08:50:14;;;;;;;9.80;4.45;;;21.00;99.90;;;;;;4965410;28;20050;-85
2021/07/11 08:52:44;;;;;;;4.68;4.10;;;21.10;99.90;;;;;;4969338;28;20178;-86
2021/07/11 08:55:20;;;;;;;4.22;3.60;;;21.00;99.90;;;;;;4953524;28;20109;-86
2021/07/11 08:58:05;;;;;;;6.70;3.55;;;21.20;99.90;;;;;;4968953;28;20149;-85
2021/07/11 09:00:34;;;;;;;4.88;3.30;;;21.30;99.90;;;;;;4957944;28;20055;-85
2021/07/11 09:03:03;;;;;;;7.28;3.92;;;21.30;99.90;;;;;;4951264;28;20058;-85
2021/07/11 09:05:33;;;;;;;4.65;3.60;;;21.20;99.90;;;;;;4966297;28;20074;-86
2021/07/11 09:08:08;;;;;;;3.67;3.10;;;21.20;99.90;;;;;;4956559;28;20042;-85
2021/07/11 09:10:50;;;;;;;5.18;3.58;;;21.20;99.90;;;;;;4969281;28;20050;-85
2021/07/11 09:13:22;;;;;;;3.90;3.45;;;21.10;99.90;;;;;;4983297;28;20055;-85
2021/07/11 09:15:53;;;;;;;7.78;4.05;;;21.20;99.90;;;;;;4967097;28;20042;-85
2021/07/11 09:18:23;;;;;;;5.72;4.75;;;21.20;99.90;;;;;;4951694;28;20061;-85
2021/07/11 09:21:08;;;;;;;3.50;3.20;;;21.30;99.90;;;;;;4975840;28;20058;-86
2021/07/11 09:23:37;;;;;;;5.22;3.38;;;21.30;99.90;;;;;;4969106;28;20046;-86
2021/07/11 09:26:09;;;;;;;4.30;3.30;;;21.30;99.90;;;;;;4966121;28;20038;-84
2021/07/11 09:28:38;;;;;;;13.32;3.17;;;21.10;99.90;;;;;;4966284;28;20420;-85
2021/07/11 09:31:09;;;;;;;11.60;4.10;;;21.00;99.90;;;;;;4967562;28;20035;-84
2021/07/11 09:33:38;;;;;;;4.45;3.10;;;21.20;99.90;;;;;;4963085;28;20073;-84
2021/07/11 09:36:11;;;;;;;3.47;2.78;;;21.30;99.90;;;;;;4965540;28;20134;-84
2021/07/11 09:38:38;;;;;;;5.57;3.63;;;21.40;99.90;;;;;;4969129;28;20046;-86
2021/07/11 09:41:14;;;;;;;5.43;3.05;;;21.60;99.90;;;;;;4967636;28;20617;-85
2021/07/11 09:43:43;;;;;;;3.83;3.50;;;21.60;99.90;;;;;;4967734;28;20085;-86
2021/07/11 09:46:15;;;;;;;5.78;3.38;;;21.50;99.90;;;;;;4962039;28;20054;-85
2021/07/11 09:48:42;;;;;;;5.70;4.13;;;21.60;99.90;;;;;;4980593;28;20053;-84
2021/07/11 09:51:20;;;;;;;5.90;4.00;;;21.80;99.90;;;;;;4966501;28;20113;-85
2021/07/11 09:53:49;;;;;;;3.17;2.88;;;21.80;99.90;;;;;;4968088;28;20057;-84
2021/07/11 09:56:36;;;;;;;4.30;2.97;;;21.80;99.90;;;;;;4965609;28;20043;-85
2021/07/11 09:59:07;;;;;;;4.82;3.22;;;21.80;99.90;;;;;;4967096;28;20046;-84
2021/07/11 10:01:36;;;;;;;4.10;3.55;;;21.70;99.90;;;;;;4967905;28;20082;-85
2021/07/11 10:04:06;;;;;;;3.93;3.23;;;21.80;99.90;;;;;;4962722;28;20070;-85
2021/07/11 10:06:35;;;;;;;4.23;3.73;;;21.90;99.90;;;;;;4984053;28;20331;-85
2021/07/11 10:09:04;;;;;;;5.30;3.37;;;21.70;99.90;;;;;;4982273;28;20043;-83
2021/07/11 10:11:32;;;;;;;4.18;3.25;;;21.60;99.90;;;;;;4967662;28;20577;-84
2021/07/11 10:13:59;;;;;;;5.35;3.08;;;21.70;99.90;;;;;;4960424;28;20039;-85
2021/07/11 10:16:27;;;;;;;5.55;4.22;;;21.70;99.90;;;;;;4967675;28;20112;-84
2021/07/11 10:19:00;;;;;;;3.65;3.35;;;21.80;99.90;;;;;;4965440;28;20066;-85
2021/07/11 10:21:33;;;;;;;12.05;4.78;;;21.80;99.90;;;;;;4977677;28;20042;-84
2021/07/11 10:24:01;;;;;;;4.78;3.60;;;21.90;99.90;;;;;;4951979;28;20497;-85
2021/07/11 10:26:39;;;;;;;3.22;2.92;;;22.00;99.90;;;;;;4981450;28;20043;-85
2021/07/11 10:29:22;;;;;;;8.02;3.42;;;22.00;99.90;;;;;;4989012;28;20166;-84
2021/07/11 10:31:52;;;;;;;4.50;3.42;;;22.10;99.90;;;;;;4975482;28;20047;-84
2021/07/11 10:34:32;;;;;;;3.10;2.80;;;22.10;99.90;;;;;;4967691;28;20062;-86
2021/07/11 10:37:11;;;;;;;4.38;3.47;;;22.30;99.90;;;;;;4966485;28;20035;-85
2021/07/11 10:39:38;;;;;;;10.40;3.85;;;22.30;99.90;;;;;;4969547;28;20437;-84
2021/07/11 10:42:07;;;;;;;3.65;3.35;;;22.30;99.90;;;;;;4967917;28;20049;-84
2021/07/11 10:44:34;;;;;;;10.30;3.73;;;22.50;99.90;;;;;;4969763;28;20038;-85
2021/07/11 10:47:06;;;;;;;4.78;3.75;;;22.40;99.90;;;;;;4968790;28;20051;-84
2021/07/11 10:49:50;;;;;;;3.53;3.20;;;22.40;99.90;;;;;;4970274;28;20382;-85
2021/07/11 10:52:26;;;;;;;3.92;3.55;;;22.60;99.90;;;;;;4966435;28;20076;-84
2021/07/11 10:55:00;;;;;;;7.28;3.40;;;22.90;99.90;;;;;;4967317;28;20079;-84
2021/07/11 10:57:26;;;;;;;2.72;2.53;;;23.00;99.90;;;;;;4969077;28;20530;-85
2021/07/11 10:59:54;;;;;;;5.00;2.83;;;22.90;99.90;;;;;;4960994;28;20109;-84
2021/07/11 11:02:24;;;;;;;2.53;2.33;;;23.00;99.90;;;;;;4989199;28;20106;-84
2021/07/11 11:04:59;;;;;;;5.90;2.83;;;23.10;99.90;;;;;;4968653;28;20059;-85
2021/07/11 11:07:37;;;;;;;8.25;4.43;;;23.10;99.90;;;;;;4965412;28;20103;-85
2021/07/11 11:10:04;;;;;;;4.30;3.40;;;23.10;99.90;;;;;;4968836;28;20157;-85
2021/07/11 11:12:31;;;;;;;3.90;3.53;;;23.20;99.90;;;;;;4966010;28;20122;-85
2021/07/11 11:15:15;;;;;;;3.42;3.13;;;23.10;99.90;;;;;;4968517;28;20098;-84
2021/07/11 11:17:42;;;;;;;3.33;3.03;;;23.30;99.90;;;;;;4951071;28;20062;-84
2021/07/11 11:20:15;;;;;;;4.38;2.63;;;23.30;99.90;;;;;;4980289;28;20058;-84
2021/07/11 11:22:53;;;;;;;2.90;2.70;;;23.30;99.90;;;;;;4965585;28;20050;-86
2021/07/11 11:25:21;;;;;;;2.38;2.17;;;23.30;99.90;;;;;;4950552;28;20043;-85
2021/07/11 11:27:55;;;;;;;3.97;2.38;;;23.40;99.90;;;;;;4969240;28;20051;-85
2021/07/11 11:30:25;;;;;;;4.20;2.28;;;23.50;99.90;;;;;;4967338;28;20062;-85
2021/07/11 11:33:00;;;;;;;5.72;2.67;;;23.50;99.90;;;;;;4969123;28;20050;-85
2021/07/11 11:35:33;;;;;;;4.07;2.80;;;23.50;99.90;;;;;;4967452;28;20050;-85
2021/07/11 11:38:04;;;;;;;3.83;2.70;;;23.80;99.90;;;;;;4966468;28;20034;-85
2021/07/11 11:40:32;;;;;;;;;;;23.60;99.90;;;;;;4968310;28;20046;-85
2021/07/11 11:43:02;;;;;;;5.53;3.58;;;23.80;99.90;;;;;;4967983;28;19926;-85
2021/07/11 11:45:32;;;;;;;4.28;2.47;;;23.80;99.90;;;;;;4962333;28;20051;-85
2021/07/11 11:48:04;;;;;;;3.50;2.07;;;23.90;99.90;;;;;;4972668;28;20685;-85
2021/07/11 11:50:34;;;;;;;3.45;2.53;;;24.00;99.90;;;;;;4964376;28;20512;-85
2021/07/11 11:53:08;;;;;;;3.23;2.30;;;24.10;99.90;;;;;;4967779;28;20047;-85
2021/07/11 11:55:44;;;;;;;4.13;2.92;;;24.00;99.90;;;;;;4967929;28;20100;-84
2021/07/11 11:58:11;;;;;;;2.45;2.03;;;23.90;99.90;;;;;;4971891;28;20057;-85
2021/07/11 12:00:38;;;;;;;2.03;1.80;;;24.10;99.90;;;;;;4950985;28;20074;-85
2021/07/11 12:03:06;;;;;;;2.42;2.25;;;24.10;99.90;;;;;;4967236;28;20069;-85
2021/07/11 12:05:35;;;;;;;4.35;2.45;;;24.20;99.90;;;;;;4967526;28;20103;-85
2021/07/11 12:08:17;;;;;;;3.45;2.33;;;24.10;99.90;;;;;;4965708;28;20039;-85
2021/07/11 12:10:45;;;;;;;8.43;2.47;;;24.40;99.90;;;;;;4966707;28;20043;-85
2021/07/11 12:13:25;;;;;;;2.65;2.15;;;24.30;99.90;;;;;;4966349;28;20058;-85
2021/07/11 12:16:11;;;;;;;3.47;3.17;;;24.20;99.90;;;;;;4965171;28;20078;-85
2021/07/11 12:18:52;;;;;;;7.03;2.33;;;24.10;99.90;;;;;;4981781;28;20043;-85
2021/07/11 12:21:26;;;;;;;2.28;2.08;;;24.00;99.90;;;;;;4981826;28;20055;-85
2021/07/11 12:24:00;;;;;;;3.33;2.28;;;24.00;99.90;;;;;;4966531;28;20158;-85
2021/07/11 12:26:29;;;;;;;4.32;3.78;;;24.00;99.90;;;;;;4981886;28;20452;-85
2021/07/11 12:28:57;;;;;;;6.00;2.15;;;23.90;99.90;;;;;;4981217;28;20051;-84
2021/07/11 12:31:26;;;;;;;6.00;2.00;;;24.10;99.90;;;;;;4965912;28;20050;-85
2021/07/11 12:34:03;;;;;;;9.95;3.58;;;24.30;99.90;;;;;;4950744;28;20066;-85
2021/07/11 12:36:31;;;;;;;3.17;2.88;;;24.40;99.90;;;;;;4967739;28;20046;-85
2021/07/11 12:38:59;;;;;;;4.13;3.80;;;24.40;99.90;;;;;;4960524;28;20428;-84
2021/07/11 12:41:33;;;;;;;3.10;2.90;;;24.20;99.90;;;;;;4950566;28;20162;-85
2021/07/11 12:44:04;;;;;;;3.58;3.28;;;24.10;99.90;;;;;;4964655;28;20382;-85
2021/07/11 12:46:33;;;;;;;3.95;3.47;;;24.00;99.90;;;;;;4965138;28;20125;-85
2021/07/11 12:49:17;;;;;;;3.23;2.90;;;24.00;99.90;;;;;;4985073;28;20058;-85
2021/07/11 12:51:49;;;;;;;4.05;3.35;;;24.20;99.90;;;;;;4965655;28;20057;-85
2021/07/11 12:54:22;;;;;;;7.95;2.90;;;24.20;99.90;;;;;;4965515;28;20053;-85
2021/07/11 12:57:00;;;;;;;9.35;2.90;;;24.40;99.90;;;;;;4941963;28;20069;-85
2021/07/11 12:59:32;;;;;;;4.32;3.35;;;24.30;99.90;;;;;;4966887;28;20049;-85
2021/07/11 13:02:01;;;;;;;7.95;3.08;;;24.10;99.90;;;;;;4948032;28;20044;-84
2021/07/11 13:04:28;;;;;;;3.60;3.30;;;24.20;99.90;;;;;;4964953;28;20046;-85